createdAt,value
2022-10-22T00:03:38.237Z,32.47
2022-10-22T00:18:40.782Z,33.17
2022-10-22T00:33:42.768Z,35.10
2022-10-22T00:48:44.813Z,34.35
2022-10-22T01:03:46.763Z,34.08
2022-10-22T01:18:58.185Z,39.05
2022-10-22T01:34:01.425Z,35.40
2022-10-22T01:49:17.575Z,37.47
2022-10-22T02:04:21.841Z,45.63
2022-10-22T02:19:38.761Z,35.10
2022-10-22T02:34:41.518Z,36.65
2022-10-22T02:49:43.418Z,33.05
2022-10-22T03:04:45.989Z,39.00
2022-10-22T03:19:47.876Z,39.55
2022-10-22T03:34:49.800Z,43.00
2022-10-22T03:49:52.457Z,41.20
2022-10-22T04:04:54.416Z,40.13
2022-10-22T04:19:56.277Z,38.20
2022-10-22T04:34:58.195Z,40.60
2022-10-22T04:50:00.113Z,33.10
2022-10-22T05:05:02.669Z,27.58
2022-10-22T05:20:05.696Z,36.30
2022-10-22T05:35:07.858Z,34.97
2022-10-22T05:50:09.897Z,36.20
2022-10-22T06:05:11.796Z,39.78
2022-10-22T06:20:14.842Z,38.08
2022-10-22T06:35:16.799Z,36.88
2022-10-22T06:50:18.728Z,38.65
2022-10-22T07:05:21.137Z,42.03
2022-10-22T07:20:23.095Z,34.95
2022-10-22T07:35:25.158Z,39.67
2022-10-22T07:50:27.319Z,48.00
2022-10-22T08:05:29.238Z,55.28
2022-10-22T08:20:31.337Z,48.40
2022-10-22T08:35:33.359Z,51.92
2022-10-22T08:50:41.088Z,68.22
2022-10-22T09:06:10.296Z,64.05
2022-10-22T09:21:39.673Z,58.25
2022-10-22T09:36:41.619Z,64.00
2022-10-22T09:52:00.271Z,68.20
2022-10-22T10:07:02.317Z,65.60
2022-10-22T10:22:33.047Z,61.75
2022-10-22T10:53:08.716Z,70.80
2022-10-22T11:08:25.570Z,76.50
2022-10-22T11:23:46.663Z,67.15
2022-10-22T11:38:48.837Z,79.80
2022-10-22T11:53:57.327Z,72.55
2022-10-22T12:09:05.031Z,58.58
2022-10-22T12:24:08.056Z,56.70
2022-10-22T12:39:20.058Z,63.85
2022-10-22T12:54:31.160Z,60.67
2022-10-22T13:09:46.120Z,68.10
2022-10-22T13:24:51.673Z,65.72
2022-10-22T13:39:53.840Z,53.83
2022-10-22T13:54:55.747Z,63.55
2022-10-22T14:09:58.242Z,58.20
2022-10-22T14:25:00.150Z,57.58
2022-10-22T14:40:02.875Z,62.45
2022-10-22T14:55:05.126Z,57.33
2022-10-22T15:10:08.583Z,56.28
2022-10-22T15:25:10.823Z,58.28
2022-10-22T15:40:12.960Z,59.85
2022-10-22T15:55:15.063Z,65.07
2022-10-22T16:10:17.081Z,91.45
2022-10-22T16:25:18.981Z,81.15
2022-10-22T16:40:21.260Z,72.38
2022-10-22T16:55:23.380Z,71.63
2022-10-22T17:10:25.431Z,70.35
2022-10-22T17:25:43.929Z,87.75
2022-10-22T17:40:45.819Z,81.22
2022-10-22T17:55:47.740Z,66.22
2022-10-22T18:10:50.018Z,61.33
2022-10-22T18:25:52.441Z,55.10
2022-10-22T18:40:54.309Z,54.53
2022-10-22T18:55:56.844Z,52.85
2022-10-22T19:10:58.942Z,43.78
2022-10-22T19:26:14.018Z,43.70
2022-10-22T19:41:19.210Z,36.72
2022-10-22T19:56:22.500Z,39.30
2022-10-22T20:11:27.695Z,44.42
2022-10-22T20:26:31.835Z,52.70
2022-10-22T20:41:35.451Z,46.53
2022-10-22T20:56:39.510Z,43.13
2022-10-22T21:11:42.823Z,48.55
2022-10-22T21:26:45.058Z,46.35
2022-10-22T21:41:47.000Z,50.00
2022-10-22T21:56:49.309Z,43.72
2022-10-22T22:11:51.201Z,42.25
2022-10-22T22:26:53.151Z,47.38
2022-10-22T22:41:55.031Z,48.80
2022-10-22T22:56:57.131Z,41.47
2022-10-22T23:11:59.021Z,43.28
2022-10-22T23:27:03.015Z,46.83
2022-10-22T23:42:04.921Z,43.03
2022-10-22T23:57:06.889Z,39.03
